createdAt,value
2022-11-17T00:04:16.608Z,60.03
2022-11-17T00:09:20.509Z,59.53
2022-11-17T00:14:34.125Z,59.54
2022-11-17T00:19:54.899Z,59.66
2022-11-17T00:24:58.295Z,59.79
2022-11-17T00:30:03.269Z,60.15
2022-11-17T00:35:08.431Z,59.57
2022-11-17T00:40:12.762Z,59.79
2022-11-17T00:45:17.590Z,59.40
2022-11-17T00:50:20.848Z,59.60
2022-11-17T00:55:24.212Z,59.51
2022-11-17T01:00:29.159Z,60.04
2022-11-17T01:05:33.256Z,59.67
2022-11-17T01:10:36.972Z,59.70
2022-11-17T01:15:41.643Z,60.22
2022-11-17T01:20:45.209Z,59.66
2022-11-17T01:25:48.745Z,60.14
2022-11-17T01:31:00.594Z,60.21
2022-11-17T01:36:04.925Z,59.89
2022-11-17T01:41:13.702Z,59.97
2022-11-17T01:46:30.639Z,60.40
2022-11-17T01:51:37.393Z,59.90
2022-11-17T01:56:46.041Z,59.92
2022-11-17T02:01:56.931Z,60.46
2022-11-17T02:07:04.808Z,60.71
2022-11-17T02:12:10.616Z,60.59
2022-11-17T02:17:15.716Z,60.97
2022-11-17T02:22:41.801Z,61.49
2022-11-17T02:28:06.211Z,60.68
2022-11-17T02:33:17.891Z,60.59
2022-11-17T02:38:33.148Z,60.58
2022-11-17T02:44:02.356Z,61.52
2022-11-17T02:49:10.041Z,60.85
2022-11-17T02:54:14.033Z,60.98
2022-11-17T02:59:23.234Z,60.93
2022-11-17T03:04:32.832Z,60.51
2022-11-17T03:09:47.824Z,60.51
2022-11-17T03:15:03.330Z,61.27
2022-11-17T03:20:15.421Z,60.99
2022-11-17T03:25:22.126Z,61.00
2022-11-17T03:30:33.276Z,60.68
2022-11-17T03:35:49.317Z,61.38
2022-11-17T03:40:57.661Z,60.97
2022-11-17T03:46:07.124Z,61.11
2022-11-17T03:51:14.658Z,60.84
2022-11-17T03:56:36.635Z,60.93
2022-11-17T04:01:41.892Z,60.91
2022-11-17T04:06:45.376Z,60.92
2022-11-17T04:12:08.234Z,61.11
2022-11-17T04:17:13.165Z,60.59
2022-11-17T04:22:16.360Z,60.29
2022-11-17T04:27:37.355Z,60.46
2022-11-17T04:32:42.034Z,60.15
2022-11-17T04:37:45.495Z,60.35
2022-11-17T04:42:48.866Z,60.66
2022-11-17T04:47:53.554Z,60.81
2022-11-17T04:52:56.996Z,60.55
2022-11-17T04:58:00.562Z,60.78
2022-11-17T05:03:05.231Z,60.80
2022-11-17T05:08:08.509Z,60.75
2022-11-17T05:13:25.421Z,60.72
2022-11-17T05:18:30.314Z,61.35
2022-11-17T05:23:50.955Z,61.36
2022-11-17T05:28:55.723Z,60.74
2022-11-17T05:34:00.542Z,60.65
2022-11-17T05:39:05.084Z,61.17
2022-11-17T05:44:08.531Z,61.20
2022-11-17T05:49:13.472Z,60.72
2022-11-17T05:54:16.898Z,61.19
2022-11-17T05:59:27.987Z,60.98
2022-11-17T06:04:33.736Z,61.12
2022-11-17T06:09:40.831Z,61.46
2022-11-17T06:14:44.493Z,61.42
2022-11-17T06:19:53.685Z,61.14
2022-11-17T06:24:58.216Z,60.89
2022-11-17T06:30:03.518Z,61.14
2022-11-17T06:35:11.604Z,61.14
2022-11-17T06:40:15.387Z,61.04
2022-11-17T06:45:18.868Z,60.94
2022-11-17T06:50:23.800Z,60.88
2022-11-17T06:55:27.200Z,60.07
2022-11-17T07:00:31.504Z,60.38
2022-11-17T07:05:40.325Z,60.74
2022-11-17T07:10:49.145Z,60.20
2022-11-17T07:15:53.502Z,59.75
2022-11-17T07:21:03.253Z,59.92
2022-11-17T07:26:07.323Z,59.29
2022-11-17T07:31:11.183Z,59.35
2022-11-17T07:36:16.828Z,59.27
2022-11-17T07:41:20.399Z,59.16
2022-11-17T07:46:23.753Z,58.88
2022-11-17T07:51:28.499Z,58.59
2022-11-17T07:56:32.189Z,59.06
2022-11-17T08:01:35.708Z,59.24
2022-11-17T08:06:40.806Z,59.35
2022-11-17T08:11:44.235Z,58.51
2022-11-17T08:16:47.804Z,58.50
2022-11-17T08:21:52.838Z,57.51
2022-11-17T08:26:57.081Z,57.81
2022-11-17T08:32:00.405Z,57.22
2022-11-17T08:37:05.353Z,55.73
2022-11-17T08:42:08.707Z,53.10
2022-11-17T08:47:12.092Z,54.89
2022-11-17T08:52:16.933Z,53.19
2022-11-17T08:57:22.501Z,53.53
2022-11-17T09:02:26.444Z,54.20
2022-11-17T09:07:34.986Z,52.90
2022-11-17T09:12:38.736Z,53.87
2022-11-17T09:17:43.714Z,54.65
2022-11-17T09:22:48.643Z,53.60
2022-11-17T09:27:52.654Z,53.02
2022-11-17T09:32:55.959Z,53.25
2022-11-17T09:38:02.261Z,53.62
2022-11-17T09:43:10.181Z,53.27
2022-11-17T09:48:40.372Z,53.38
2022-11-17T09:53:52.149Z,53.50
2022-11-17T09:59:00.249Z,53.75
2022-11-17T10:04:03.544Z,53.57
2022-11-17T10:09:24.053Z,53.61
2022-11-17T10:14:30.378Z,53.70
2022-11-17T10:19:35.230Z,53.77
2022-11-17T10:24:42.432Z,54.06
2022-11-17T10:29:58.016Z,53.63
2022-11-17T10:35:16.081Z,54.03
2022-11-17T10:40:25.584Z,53.92
2022-11-17T10:45:29.965Z,54.56
2022-11-17T10:50:33.330Z,54.71
2022-11-17T10:55:39.528Z,54.26
2022-11-17T11:00:44.749Z,53.51
2022-11-17T11:06:07.378Z,53.38
2022-11-17T11:11:19.477Z,53.46
2022-11-17T11:16:23.225Z,53.72
2022-11-17T11:21:47.207Z,53.41
2022-11-17T11:27:05.463Z,52.77
2022-11-17T11:32:21.818Z,52.63
2022-11-17T11:37:31.077Z,53.36
2022-11-17T11:42:47.166Z,53.51
2022-11-17T11:48:08.584Z,54.23
2022-11-17T11:53:19.860Z,54.96
2022-11-17T11:58:26.167Z,54.83
2022-11-17T12:03:36.024Z,55.09
2022-11-17T12:08:49.669Z,55.63
2022-11-17T12:13:55.568Z,55.94
2022-11-17T12:18:59.234Z,55.57
2022-11-17T12:24:16.285Z,56.20
2022-11-17T12:29:35.357Z,56.51
2022-11-17T12:34:39.442Z,56.09
2022-11-17T12:40:30.433Z,56.45
2022-11-17T12:45:56.015Z,57.00
2022-11-17T12:51:06.381Z,56.25
2022-11-17T12:57:00.403Z,57.16
2022-11-17T13:02:23.533Z,56.61
2022-11-17T13:07:28.226Z,57.08
2022-11-17T13:12:31.798Z,57.35
2022-11-17T13:17:43.326Z,57.27
2022-11-17T13:23:00.380Z,59.20
2022-11-17T13:28:05.568Z,57.83
2022-11-17T13:33:12.173Z,58.64
2022-11-17T13:38:21.144Z,58.89
2022-11-17T13:43:26.942Z,58.10
2022-11-17T13:48:36.894Z,58.52
2022-11-17T13:53:44.512Z,58.36
2022-11-17T13:58:50.528Z,58.79
2022-11-17T14:04:19.590Z,58.91
2022-11-17T14:09:23.963Z,58.53
2022-11-17T14:14:35.525Z,59.15
2022-11-17T14:19:40.358Z,58.89
2022-11-17T14:24:45.347Z,58.88
2022-11-17T14:29:48.736Z,58.51
2022-11-17T14:34:53.521Z,58.21
2022-11-17T14:39:57.066Z,58.53
2022-11-17T14:45:00.494Z,58.63
2022-11-17T14:50:05.524Z,59.35
2022-11-17T14:55:09.740Z,58.95
2022-11-17T15:00:19.935Z,59.64
2022-11-17T15:05:26.403Z,59.80
2022-11-17T15:10:29.923Z,59.21
2022-11-17T15:15:33.301Z,60.12
2022-11-17T15:20:38.264Z,59.71
2022-11-17T15:25:41.467Z,59.68
2022-11-17T15:30:44.983Z,59.13
2022-11-17T15:35:49.946Z,59.84
2022-11-17T15:40:54.971Z,59.73
2022-11-17T15:46:02.624Z,59.32
2022-11-17T15:51:09.472Z,59.16
2022-11-17T15:56:14.025Z,59.27
2022-11-17T16:01:26.412Z,59.20
2022-11-17T16:06:32.563Z,59.79
2022-11-17T16:11:36.830Z,59.89
2022-11-17T16:16:40.905Z,59.20
2022-11-17T16:21:46.049Z,58.57
2022-11-17T16:26:49.724Z,58.28
2022-11-17T16:31:53.331Z,57.79
2022-11-17T16:36:58.483Z,58.62
2022-11-17T16:42:02.070Z,57.92
2022-11-17T16:47:05.561Z,58.28
2022-11-17T16:52:10.397Z,58.58
2022-11-17T16:57:14.012Z,59.16
2022-11-17T17:02:17.215Z,59.12
2022-11-17T17:07:22.154Z,59.44
2022-11-17T17:12:26.214Z,58.84
2022-11-17T17:17:29.844Z,59.08
2022-11-17T17:22:34.853Z,59.70
2022-11-17T17:27:38.437Z,59.33
2022-11-17T17:32:41.677Z,59.69
2022-11-17T17:37:46.365Z,59.51
2022-11-17T17:42:49.366Z,59.33
2022-11-17T17:47:52.835Z,60.38
2022-11-17T17:52:57.694Z,60.21
2022-11-17T17:58:01.233Z,60.07
2022-11-17T18:03:04.689Z,60.33
2022-11-17T18:08:09.878Z,60.61
2022-11-17T18:13:13.150Z,59.97
2022-11-17T18:18:16.846Z,61.01
2022-11-17T18:23:21.597Z,60.62
2022-11-17T18:28:24.834Z,59.96
2022-11-17T18:33:29.371Z,60.28
2022-11-17T18:38:34.895Z,61.01
2022-11-17T18:43:39.163Z,61.10
2022-11-17T18:48:44.496Z,60.92
2022-11-17T18:53:49.758Z,60.85
2022-11-17T18:58:53.967Z,60.70
2022-11-17T19:04:01.089Z,60.77
2022-11-17T19:09:06.478Z,60.78
2022-11-17T19:14:09.703Z,60.93
2022-11-17T19:19:14.749Z,60.92
2022-11-17T19:24:20.058Z,61.10
2022-11-17T19:29:23.702Z,61.59
2022-11-17T19:34:27.306Z,61.38
2022-11-17T19:39:32.084Z,61.41
2022-11-17T19:44:35.318Z,61.35
2022-11-17T19:49:38.981Z,61.22
2022-11-17T19:54:43.633Z,61.25
2022-11-17T19:59:46.928Z,61.16
2022-11-17T20:04:50.263Z,61.44
2022-11-17T20:09:55.254Z,61.87
2022-11-17T20:14:58.795Z,61.31
2022-11-17T20:20:02.249Z,61.27
2022-11-17T20:25:08.229Z,61.59
2022-11-17T20:30:15.352Z,61.43
2022-11-17T20:35:18.957Z,60.53
2022-11-17T20:40:23.908Z,61.00
2022-11-17T20:45:27.377Z,62.05
2022-11-17T20:50:32.329Z,61.69
2022-11-17T20:55:37.169Z,61.43
2022-11-17T21:00:40.696Z,60.93
2022-11-17T21:05:44.222Z,61.30
2022-11-17T21:10:49.098Z,61.53
2022-11-17T21:16:07.307Z,61.97
2022-11-17T21:21:11.568Z,61.74
2022-11-17T21:26:18.162Z,61.34
2022-11-17T21:31:23.958Z,61.13
2022-11-17T21:36:28.942Z,61.28
2022-11-17T21:41:36.409Z,61.30
2022-11-17T21:46:39.611Z,61.55
2022-11-17T21:51:43.062Z,61.30
2022-11-17T21:56:47.967Z,60.85
2022-11-17T22:01:51.209Z,61.13
2022-11-17T22:06:54.748Z,61.16
2022-11-17T22:11:59.444Z,60.40
2022-11-17T22:17:02.625Z,60.28
2022-11-17T22:22:06.345Z,60.47
2022-11-17T22:27:11.219Z,60.39
2022-11-17T22:32:14.394Z,60.43
2022-11-17T22:37:17.867Z,60.51
2022-11-17T22:42:22.620Z,60.45
2022-11-17T22:47:25.658Z,60.14
2022-11-17T22:52:29.019Z,60.66
2022-11-17T22:57:33.858Z,59.95
2022-11-17T23:02:37.418Z,60.65
2022-11-17T23:07:41.074Z,60.95
2022-11-17T23:12:45.730Z,60.04
2022-11-17T23:17:49.427Z,60.02
2022-11-17T23:22:54.153Z,60.54
2022-11-17T23:27:59.049Z,60.36
2022-11-17T23:33:02.435Z,60.79
2022-11-17T23:38:06.026Z,60.69
2022-11-17T23:43:10.537Z,60.76
2022-11-17T23:48:13.981Z,60.25
2022-11-17T23:53:17.201Z,60.34
2022-11-17T23:58:22.090Z,59.84
